sensor_id;sensor_type;location;lat;lon;timestamp;P1;durP1;ratioP1;P2;durP2;ratioP2
11988;SDS011;6054;50.966;7.094;2023-09-19T00:02:20;5.45;;;1.80;;
11988;SDS011;6054;50.966;7.094;2023-09-19T00:04:47;6.18;;;1.70;;
11988;SDS011;6054;50.966;7.094;2023-09-19T00:07:15;5.03;;;1.60;;
11988;SDS011;6054;50.966;7.094;2023-09-19T00:09:42;5.43;;;1.55;;
11988;SDS011;6054;50.966;7.094;2023-09-19T00:12:09;4.40;;;1.90;;
11988;SDS011;6054;50.966;7.094;2023-09-19T00:14:38;5.20;;;1.70;;
11988;SDS011;6054;50.966;7.094;2023-09-19T00:17:06;4.30;;;1.58;;
11988;SDS011;6054;50.966;7.094;2023-09-19T00:19:34;4.70;;;1.55;;
11988;SDS011;6054;50.966;7.094;2023-09-19T00:22:01;2.90;;;1.50;;
11988;SDS011;6054;50.966;7.094;2023-09-19T00:24:28;4.93;;;1.60;;
11988;SDS011;6054;50.966;7.094;2023-09-19T00:26:55;2.55;;;1.58;;
11988;SDS011;6054;50.966;7.094;2023-09-19T00:29:24;7.35;;;1.70;;
11988;SDS011;6054;50.966;7.094;2023-09-19T00:31:54;3.42;;;1.60;;
11988;SDS011;6054;50.966;7.094;2023-09-19T00:34:22;5.95;;;1.63;;
11988;SDS011;6054;50.966;7.094;2023-09-19T00:36:50;3.72;;;1.70;;
11988;SDS011;6054;50.966;7.094;2023-09-19T00:39:19;7.32;;;1.67;;
11988;SDS011;6054;50.966;7.094;2023-09-19T00:41:46;6.93;;;2.22;;
11988;SDS011;6054;50.966;7.094;2023-09-19T00:44:13;7.82;;;1.85;;
11988;SDS011;6054;50.966;7.094;2023-09-19T00:46:40;4.55;;;1.58;;
11988;SDS011;6054;50.966;7.094;2023-09-19T00:49:08;5.28;;;1.38;;
11988;SDS011;6054;50.966;7.094;2023-09-19T00:51:37;2.78;;;1.52;;
11988;SDS011;6054;50.966;7.094;2023-09-19T00:54:06;3.45;;;1.60;;
11988;SDS011;6054;50.966;7.094;2023-09-19T00:56:33;4.63;;;1.80;;
11988;SDS011;6054;50.966;7.094;2023-09-19T00:59:03;3.78;;;1.60;;
11988;SDS011;6054;50.966;7.094;2023-09-19T01:01:29;4.30;;;1.50;;
11988;SDS011;6054;50.966;7.094;2023-09-19T01:03:57;7.38;;;1.80;;
11988;SDS011;6054;50.966;7.094;2023-09-19T01:06:24;9.95;;;1.60;;
11988;SDS011;6054;50.966;7.094;2023-09-19T01:08:53;5.70;;;1.55;;
11988;SDS011;6054;50.966;7.094;2023-09-19T01:11:21;8.77;;;1.70;;
11988;SDS011;6054;50.966;7.094;2023-09-19T01:13:56;3.63;;;1.30;;
11988;SDS011;6054;50.966;7.094;2023-09-19T01:16:32;5.63;;;1.30;;
11988;SDS011;6054;50.966;7.094;2023-09-19T01:19:07;3.05;;;1.30;;
11988;SDS011;6054;50.966;7.094;2023-09-19T01:21:54;4.00;;;1.70;;
11988;SDS011;6054;50.966;7.094;2023-09-19T01:24:45;3.38;;;1.58;;
11988;SDS011;6054;50.966;7.094;2023-09-19T01:27:34;4.28;;;1.50;;
11988;SDS011;6054;50.966;7.094;2023-09-19T01:30:21;4.57;;;2.20;;
11988;SDS011;6054;50.966;7.094;2023-09-19T01:32:52;6.32;;;2.00;;
11988;SDS011;6054;50.966;7.094;2023-09-19T01:35:18;6.20;;;2.03;;
11988;SDS011;6054;50.966;7.094;2023-09-19T01:37:45;5.35;;;1.75;;
11988;SDS011;6054;50.966;7.094;2023-09-19T01:40:12;4.68;;;1.77;;
11988;SDS011;6054;50.966;7.094;2023-09-19T01:42:43;5.63;;;1.65;;
11988;SDS011;6054;50.966;7.094;2023-09-19T01:45:16;7.57;;;1.90;;
11988;SDS011;6054;50.966;7.094;2023-09-19T01:47:52;8.88;;;1.70;;
11988;SDS011;6054;50.966;7.094;2023-09-19T01:50:24;7.80;;;1.60;;
11988;SDS011;6054;50.966;7.094;2023-09-19T01:52:57;6.40;;;1.63;;
11988;SDS011;6054;50.966;7.094;2023-09-19T01:55:29;4.90;;;1.80;;
11988;SDS011;6054;50.966;7.094;2023-09-19T01:58:01;8.50;;;1.83;;
11988;SDS011;6054;50.966;7.094;2023-09-19T02:00:34;5.97;;;2.15;;
11988;SDS011;6054;50.966;7.094;2023-09-19T02:03:03;3.88;;;1.70;;
11988;SDS011;6054;50.966;7.094;2023-09-19T02:05:30;5.88;;;1.80;;
11988;SDS011;6054;50.966;7.094;2023-09-19T02:07:58;5.25;;;1.50;;
11988;SDS011;6054;50.966;7.094;2023-09-19T02:10:25;10.40;;;2.00;;
11988;SDS011;6054;50.966;7.094;2023-09-19T02:12:52;4.93;;;1.48;;
11988;SDS011;6054;50.966;7.094;2023-09-19T02:15:19;5.75;;;1.88;;
11988;SDS011;6054;50.966;7.094;2023-09-19T02:17:48;5.85;;;1.75;;
11988;SDS011;6054;50.966;7.094;2023-09-19T02:20:15;6.32;;;2.08;;
11988;SDS011;6054;50.966;7.094;2023-09-19T02:22:42;5.40;;;1.88;;
11988;SDS011;6054;50.966;7.094;2023-09-19T02:25:09;8.60;;;1.92;;
11988;SDS011;6054;50.966;7.094;2023-09-19T02:27:38;4.70;;;2.45;;
11988;SDS011;6054;50.966;7.094;2023-09-19T02:30:06;8.40;;;2.35;;
11988;SDS011;6054;50.966;7.094;2023-09-19T02:32:33;6.70;;;2.38;;
11988;SDS011;6054;50.966;7.094;2023-09-19T02:35:05;11.93;;;2.10;;
11988;SDS011;6054;50.966;7.094;2023-09-19T02:37:36;6.45;;;1.95;;
11988;SDS011;6054;50.966;7.094;2023-09-19T02:40:03;6.18;;;1.88;;
11988;SDS011;6054;50.966;7.094;2023-09-19T02:42:31;7.05;;;1.90;;
11988;SDS011;6054;50.966;7.094;2023-09-19T02:44:58;8.57;;;2.05;;
11988;SDS011;6054;50.966;7.094;2023-09-19T02:47:25;6.78;;;1.83;;
11988;SDS011;6054;50.966;7.094;2023-09-19T02:49:53;7.25;;;2.13;;
11988;SDS011;6054;50.966;7.094;2023-09-19T02:52:21;5.07;;;1.58;;
11988;SDS011;6054;50.966;7.094;2023-09-19T02:54:49;5.03;;;1.92;;
11988;SDS011;6054;50.966;7.094;2023-09-19T02:57:17;6.40;;;2.10;;
11988;SDS011;6054;50.966;7.094;2023-09-19T02:59:44;7.80;;;2.03;;
11988;SDS011;6054;50.966;7.094;2023-09-19T03:02:12;6.85;;;1.90;;
11988;SDS011;6054;50.966;7.094;2023-09-19T03:04:38;10.93;;;2.00;;
11988;SDS011;6054;50.966;7.094;2023-09-19T03:07:05;7.30;;;1.95;;
11988;SDS011;6054;50.966;7.094;2023-09-19T03:09:33;4.63;;;1.73;;
11988;SDS011;6054;50.966;7.094;2023-09-19T03:12:00;9.00;;;2.10;;
11988;SDS011;6054;50.966;7.094;2023-09-19T03:14:29;5.47;;;1.65;;
11988;SDS011;6054;50.966;7.094;2023-09-19T03:17:00;6.30;;;2.25;;
11988;SDS011;6054;50.966;7.094;2023-09-19T03:19:29;7.20;;;1.95;;
11988;SDS011;6054;50.966;7.094;2023-09-19T03:21:58;8.95;;;2.00;;
11988;SDS011;6054;50.966;7.094;2023-09-19T03:24:25;8.40;;;2.45;;
11988;SDS011;6054;50.966;7.094;2023-09-19T03:26:53;6.63;;;1.70;;
11988;SDS011;6054;50.966;7.094;2023-09-19T03:29:20;5.88;;;1.75;;
11988;SDS011;6054;50.966;7.094;2023-09-19T03:31:47;10.07;;;2.15;;
11988;SDS011;6054;50.966;7.094;2023-09-19T03:34:14;11.20;;;3.13;;
11988;SDS011;6054;50.966;7.094;2023-09-19T03:36:41;6.95;;;2.13;;
11988;SDS011;6054;50.966;7.094;2023-09-19T03:39:08;6.15;;;2.00;;
11988;SDS011;6054;50.966;7.094;2023-09-19T03:41:35;8.25;;;2.20;;
11988;SDS011;6054;50.966;7.094;2023-09-19T03:44:04;12.57;;;1.98;;
11988;SDS011;6054;50.966;7.094;2023-09-19T03:46:30;9.45;;;2.15;;
11988;SDS011;6054;50.966;7.094;2023-09-19T03:48:57;9.30;;;2.20;;
11988;SDS011;6054;50.966;7.094;2023-09-19T03:51:24;10.20;;;2.22;;
11988;SDS011;6054;50.966;7.094;2023-09-19T03:53:51;7.95;;;2.60;;
11988;SDS011;6054;50.966;7.094;2023-09-19T03:56:18;5.45;;;2.00;;
11988;SDS011;6054;50.966;7.094;2023-09-19T03:58:44;7.15;;;1.88;;
11988;SDS011;6054;50.966;7.094;2023-09-19T04:01:12;10.45;;;2.17;;
11988;SDS011;6054;50.966;7.094;2023-09-19T04:03:39;8.63;;;1.83;;
11988;SDS011;6054;50.966;7.094;2023-09-19T04:06:13;7.65;;;1.92;;
11988;SDS011;6054;50.966;7.094;2023-09-19T04:08:39;6.20;;;1.50;;
11988;SDS011;6054;50.966;7.094;2023-09-19T04:11:06;9.43;;;1.67;;
11988;SDS011;6054;50.966;7.094;2023-09-19T04:13:33;5.93;;;1.55;;
11988;SDS011;6054;50.966;7.094;2023-09-19T04:16:00;6.47;;;1.90;;
11988;SDS011;6054;50.966;7.094;2023-09-19T04:18:29;5.38;;;1.80;;
11988;SDS011;6054;50.966;7.094;2023-09-19T04:20:58;9.60;;;2.33;;
11988;SDS011;6054;50.966;7.094;2023-09-19T04:23:27;10.23;;;2.22;;
11988;SDS011;6054;50.966;7.094;2023-09-19T04:25:54;7.90;;;2.50;;
11988;SDS011;6054;50.966;7.094;2023-09-19T04:28:21;9.38;;;2.08;;
11988;SDS011;6054;50.966;7.094;2023-09-19T04:30:48;7.82;;;1.65;;
11988;SDS011;6054;50.966;7.094;2023-09-19T04:33:14;6.82;;;2.20;;
11988;SDS011;6054;50.966;7.094;2023-09-19T04:35:43;6.80;;;2.30;;
11988;SDS011;6054;50.966;7.094;2023-09-19T04:38:10;7.97;;;1.77;;
11988;SDS011;6054;50.966;7.094;2023-09-19T04:40:37;7.93;;;1.88;;
11988;SDS011;6054;50.966;7.094;2023-09-19T04:43:04;6.43;;;1.75;;
11988;SDS011;6054;50.966;7.094;2023-09-19T04:45:32;7.68;;;2.22;;
11988;SDS011;6054;50.966;7.094;2023-09-19T04:47:59;10.38;;;2.17;;
11988;SDS011;6054;50.966;7.094;2023-09-19T04:50:27;9.63;;;2.50;;
11988;SDS011;6054;50.966;7.094;2023-09-19T04:52:55;8.93;;;3.15;;
11988;SDS011;6054;50.966;7.094;2023-09-19T04:55:22;5.78;;;1.92;;
11988;SDS011;6054;50.966;7.094;2023-09-19T04:57:49;7.47;;;2.08;;
11988;SDS011;6054;50.966;7.094;2023-09-19T05:00:18;8.95;;;2.40;;
11988;SDS011;6054;50.966;7.094;2023-09-19T05:02:48;8.45;;;2.58;;
11988;SDS011;6054;50.966;7.094;2023-09-19T05:05:16;5.00;;;1.80;;
11988;SDS011;6054;50.966;7.094;2023-09-19T05:07:44;8.35;;;2.10;;
11988;SDS011;6054;50.966;7.094;2023-09-19T05:10:12;5.60;;;2.22;;
11988;SDS011;6054;50.966;7.094;2023-09-19T05:12:39;9.48;;;2.58;;
11988;SDS011;6054;50.966;7.094;2023-09-19T05:15:07;8.60;;;1.90;;
11988;SDS011;6054;50.966;7.094;2023-09-19T05:17:34;5.68;;;1.85;;
11988;SDS011;6054;50.966;7.094;2023-09-19T05:20:01;10.73;;;2.20;;
11988;SDS011;6054;50.966;7.094;2023-09-19T05:22:40;6.43;;;2.20;;
11988;SDS011;6054;50.966;7.094;2023-09-19T05:25:08;5.88;;;2.35;;
11988;SDS011;6054;50.966;7.094;2023-09-19T05:27:36;8.75;;;2.20;;
11988;SDS011;6054;50.966;7.094;2023-09-19T05:30:03;9.45;;;2.65;;
11988;SDS011;6054;50.966;7.094;2023-09-19T05:32:32;7.38;;;2.10;;
11988;SDS011;6054;50.966;7.094;2023-09-19T05:34:58;6.25;;;2.40;;
11988;SDS011;6054;50.966;7.094;2023-09-19T05:37:26;11.88;;;2.33;;
11988;SDS011;6054;50.966;7.094;2023-09-19T05:39:52;9.82;;;2.20;;
11988;SDS011;6054;50.966;7.094;2023-09-19T05:42:19;7.25;;;2.00;;
11988;SDS011;6054;50.966;7.094;2023-09-19T05:44:47;7.38;;;1.90;;
11988;SDS011;6054;50.966;7.094;2023-09-19T05:47:14;9.77;;;2.78;;
11988;SDS011;6054;50.966;7.094;2023-09-19T05:49:41;7.10;;;2.55;;
11988;SDS011;6054;50.966;7.094;2023-09-19T05:52:09;7.35;;;1.90;;
11988;SDS011;6054;50.966;7.094;2023-09-19T05:54:35;8.55;;;1.90;;
11988;SDS011;6054;50.966;7.094;2023-09-19T05:57:02;9.23;;;2.05;;
11988;SDS011;6054;50.966;7.094;2023-09-19T05:59:29;5.15;;;1.80;;
11988;SDS011;6054;50.966;7.094;2023-09-19T06:01:57;7.20;;;1.88;;
11988;SDS011;6054;50.966;7.094;2023-09-19T06:04:24;6.07;;;1.83;;
11988;SDS011;6054;50.966;7.094;2023-09-19T06:06:51;7.28;;;2.20;;
11988;SDS011;6054;50.966;7.094;2023-09-19T06:09:18;5.93;;;2.60;;
11988;SDS011;6054;50.966;7.094;2023-09-19T06:11:48;6.05;;;1.80;;
11988;SDS011;6054;50.966;7.094;2023-09-19T06:14:14;8.75;;;2.10;;
11988;SDS011;6054;50.966;7.094;2023-09-19T06:16:42;8.90;;;2.90;;
11988;SDS011;6054;50.966;7.094;2023-09-19T06:19:11;7.63;;;2.13;;
11988;SDS011;6054;50.966;7.094;2023-09-19T06:21:38;5.50;;;2.50;;
11988;SDS011;6054;50.966;7.094;2023-09-19T06:24:05;5.15;;;1.73;;
11988;SDS011;6054;50.966;7.094;2023-09-19T06:26:32;7.65;;;1.90;;
11988;SDS011;6054;50.966;7.094;2023-09-19T06:28:59;8.70;;;1.98;;
11988;SDS011;6054;50.966;7.094;2023-09-19T06:31:26;7.82;;;1.88;;
11988;SDS011;6054;50.966;7.094;2023-09-19T06:33:53;8.15;;;2.00;;
11988;SDS011;6054;50.966;7.094;2023-09-19T06:36:22;10.07;;;2.15;;
11988;SDS011;6054;50.966;7.094;2023-09-19T06:38:49;8.25;;;2.97;;
11988;SDS011;6054;50.966;7.094;2023-09-19T06:41:17;11.38;;;2.65;;
11988;SDS011;6054;50.966;7.094;2023-09-19T06:43:44;8.00;;;2.20;;
11988;SDS011;6054;50.966;7.094;2023-09-19T06:46:12;10.20;;;1.92;;
11988;SDS011;6054;50.966;7.094;2023-09-19T06:48:39;8.15;;;2.00;;
11988;SDS011;6054;50.966;7.094;2023-09-19T06:51:06;7.40;;;2.65;;
11988;SDS011;6054;50.966;7.094;2023-09-19T06:53:36;5.82;;;2.28;;
11988;SDS011;6054;50.966;7.094;2023-09-19T06:56:03;8.25;;;2.13;;
11988;SDS011;6054;50.966;7.094;2023-09-19T06:58:31;6.43;;;2.20;;
11988;SDS011;6054;50.966;7.094;2023-09-19T07:00:58;8.80;;;1.90;;
11988;SDS011;6054;50.966;7.094;2023-09-19T07:03:25;11.80;;;2.38;;
11988;SDS011;6054;50.966;7.094;2023-09-19T07:05:53;11.73;;;2.00;;
11988;SDS011;6054;50.966;7.094;2023-09-19T07:08:21;7.90;;;2.10;;
11988;SDS011;6054;50.966;7.094;2023-09-19T07:10:49;8.90;;;2.30;;
11988;SDS011;6054;50.966;7.094;2023-09-19T07:13:17;6.35;;;2.28;;
11988;SDS011;6054;50.966;7.094;2023-09-19T07:15:44;8.77;;;2.38;;
11988;SDS011;6054;50.966;7.094;2023-09-19T07:18:15;7.63;;;2.40;;
11988;SDS011;6054;50.966;7.094;2023-09-19T07:20:42;9.15;;;2.63;;
11988;SDS011;6054;50.966;7.094;2023-09-19T07:23:13;8.32;;;2.33;;
11988;SDS011;6054;50.966;7.094;2023-09-19T07:25:41;5.55;;;1.98;;
11988;SDS011;6054;50.966;7.094;2023-09-19T07:28:09;7.07;;;2.42;;
11988;SDS011;6054;50.966;7.094;2023-09-19T07:30:36;7.80;;;2.35;;
11988;SDS011;6054;50.966;7.094;2023-09-19T07:33:04;9.50;;;2.10;;
11988;SDS011;6054;50.966;7.094;2023-09-19T07:35:31;9.07;;;2.08;;
11988;SDS011;6054;50.966;7.094;2023-09-19T07:37:58;5.20;;;1.50;;
11988;SDS011;6054;50.966;7.094;2023-09-19T07:40:26;11.98;;;2.38;;
11988;SDS011;6054;50.966;7.094;2023-09-19T07:42:54;11.38;;;2.17;;
11988;SDS011;6054;50.966;7.094;2023-09-19T07:45:22;11.70;;;2.40;;
11988;SDS011;6054;50.966;7.094;2023-09-19T07:47:50;9.15;;;2.40;;
11988;SDS011;6054;50.966;7.094;2023-09-19T07:50:18;5.85;;;2.20;;
11988;SDS011;6054;50.966;7.094;2023-09-19T07:52:45;10.18;;;2.30;;
11988;SDS011;6054;50.966;7.094;2023-09-19T07:55:12;6.97;;;1.92;;
11988;SDS011;6054;50.966;7.094;2023-09-19T07:57:41;8.80;;;2.30;;
11988;SDS011;6054;50.966;7.094;2023-09-19T08:00:09;6.13;;;1.90;;
11988;SDS011;6054;50.966;7.094;2023-09-19T08:02:38;8.55;;;2.08;;
11988;SDS011;6054;50.966;7.094;2023-09-19T08:05:06;10.73;;;2.55;;
11988;SDS011;6054;50.966;7.094;2023-09-19T08:07:35;8.05;;;2.00;;
11988;SDS011;6054;50.966;7.094;2023-09-19T08:10:02;7.75;;;1.90;;
11988;SDS011;6054;50.966;7.094;2023-09-19T08:12:29;8.38;;;2.08;;
11988;SDS011;6054;50.966;7.094;2023-09-19T08:14:57;7.55;;;2.03;;
11988;SDS011;6054;50.966;7.094;2023-09-19T08:17:24;5.60;;;2.20;;
11988;SDS011;6054;50.966;7.094;2023-09-19T08:19:52;5.78;;;2.00;;
11988;SDS011;6054;50.966;7.094;2023-09-19T08:22:19;9.30;;;2.20;;
11988;SDS011;6054;50.966;7.094;2023-09-19T08:24:46;6.97;;;2.50;;
11988;SDS011;6054;50.966;7.094;2023-09-19T08:27:14;5.93;;;2.10;;
11988;SDS011;6054;50.966;7.094;2023-09-19T08:29:43;10.57;;;2.38;;
11988;SDS011;6054;50.966;7.094;2023-09-19T08:32:10;9.35;;;2.38;;
11988;SDS011;6054;50.966;7.094;2023-09-19T08:34:37;9.80;;;2.50;;
11988;SDS011;6054;50.966;7.094;2023-09-19T08:37:05;11.27;;;2.45;;
11988;SDS011;6054;50.966;7.094;2023-09-19T08:39:32;12.80;;;2.33;;
11988;SDS011;6054;50.966;7.094;2023-09-19T08:42:02;10.00;;;2.83;;
11988;SDS011;6054;50.966;7.094;2023-09-19T08:44:29;7.15;;;2.20;;
11988;SDS011;6054;50.966;7.094;2023-09-19T08:46:59;7.38;;;1.98;;
11988;SDS011;6054;50.966;7.094;2023-09-19T08:49:33;7.32;;;2.33;;
11988;SDS011;6054;50.966;7.094;2023-09-19T08:52:08;5.75;;;2.30;;
11988;SDS011;6054;50.966;7.094;2023-09-19T08:54:42;4.75;;;1.90;;
11988;SDS011;6054;50.966;7.094;2023-09-19T08:57:11;6.28;;;2.30;;
11988;SDS011;6054;50.966;7.094;2023-09-19T08:59:46;6.45;;;2.00;;
11988;SDS011;6054;50.966;7.094;2023-09-19T09:02:15;9.60;;;2.28;;
11988;SDS011;6054;50.966;7.094;2023-09-19T09:04:43;9.38;;;2.40;;
11988;SDS011;6054;50.966;7.094;2023-09-19T09:07:14;3.90;;;2.05;;
11988;SDS011;6054;50.966;7.094;2023-09-19T09:09:41;10.77;;;2.08;;
11988;SDS011;6054;50.966;7.094;2023-09-19T09:12:09;7.97;;;2.08;;
11988;SDS011;6054;50.966;7.094;2023-09-19T09:14:38;8.18;;;2.40;;
11988;SDS011;6054;50.966;7.094;2023-09-19T09:17:05;8.60;;;2.35;;
11988;SDS011;6054;50.966;7.094;2023-09-19T09:19:32;5.75;;;2.17;;
11988;SDS011;6054;50.966;7.094;2023-09-19T09:22:05;9.60;;;2.30;;
11988;SDS011;6054;50.966;7.094;2023-09-19T09:24:34;6.80;;;2.17;;
11988;SDS011;6054;50.966;7.094;2023-09-19T09:27:03;10.05;;;2.17;;
11988;SDS011;6054;50.966;7.094;2023-09-19T09:29:44;6.15;;;2.00;;
11988;SDS011;6054;50.966;7.094;2023-09-19T09:32:18;6.13;;;2.03;;
11988;SDS011;6054;50.966;7.094;2023-09-19T09:34:45;6.82;;;1.98;;
11988;SDS011;6054;50.966;7.094;2023-09-19T09:37:14;5.95;;;2.00;;
11988;SDS011;6054;50.966;7.094;2023-09-19T09:39:49;12.48;;;1.98;;
11988;SDS011;6054;50.966;7.094;2023-09-19T09:45:13;6.18;;;2.40;;
11988;SDS011;6054;50.966;7.094;2023-09-19T09:47:42;3.65;;;1.90;;
11988;SDS011;6054;50.966;7.094;2023-09-19T09:50:27;4.63;;;1.80;;
11988;SDS011;6054;50.966;7.094;2023-09-19T09:53:04;10.30;;;2.03;;
11988;SDS011;6054;50.966;7.094;2023-09-19T09:56:03;8.48;;;1.83;;
11988;SDS011;6054;50.966;7.094;2023-09-19T09:58:34;8.65;;;2.17;;
11988;SDS011;6054;50.966;7.094;2023-09-19T10:01:02;7.85;;;1.80;;
11988;SDS011;6054;50.966;7.094;2023-09-19T10:03:36;7.10;;;1.80;;
11988;SDS011;6054;50.966;7.094;2023-09-19T10:06:09;6.00;;;2.15;;
11988;SDS011;6054;50.966;7.094;2023-09-19T10:08:58;6.35;;;1.98;;
11988;SDS011;6054;50.966;7.094;2023-09-19T10:11:37;4.28;;;2.30;;
11988;SDS011;6054;50.966;7.094;2023-09-19T10:14:08;5.03;;;2.05;;
11988;SDS011;6054;50.966;7.094;2023-09-19T10:16:38;4.97;;;1.90;;
11988;SDS011;6054;50.966;7.094;2023-09-19T10:19:07;5.57;;;1.90;;
11988;SDS011;6054;50.966;7.094;2023-09-19T10:21:35;3.47;;;1.65;;
11988;SDS011;6054;50.966;7.094;2023-09-19T10:24:03;2.63;;;1.40;;
11988;SDS011;6054;50.966;7.094;2023-09-19T10:26:34;5.25;;;1.77;;
11988;SDS011;6054;50.966;7.094;2023-09-19T10:29:03;4.00;;;2.28;;
11988;SDS011;6054;50.966;7.094;2023-09-19T10:31:34;5.45;;;1.80;;
11988;SDS011;6054;50.966;7.094;2023-09-19T10:34:05;4.68;;;1.45;;
11988;SDS011;6054;50.966;7.094;2023-09-19T10:36:35;5.57;;;1.85;;
11988;SDS011;6054;50.966;7.094;2023-09-19T10:39:04;5.70;;;1.75;;
11988;SDS011;6054;50.966;7.094;2023-09-19T10:41:34;4.75;;;1.65;;
11988;SDS011;6054;50.966;7.094;2023-09-19T10:44:04;6.60;;;1.80;;
11988;SDS011;6054;50.966;7.094;2023-09-19T10:46:31;6.25;;;2.00;;
11988;SDS011;6054;50.966;7.094;2023-09-19T10:48:58;3.72;;;1.80;;
11988;SDS011;6054;50.966;7.094;2023-09-19T10:51:27;5.32;;;1.88;;
11988;SDS011;6054;50.966;7.094;2023-09-19T10:53:59;4.68;;;1.50;;
11988;SDS011;6054;50.966;7.094;2023-09-19T10:56:32;6.15;;;1.60;;
11988;SDS011;6054;50.966;7.094;2023-09-19T10:59:08;4.88;;;1.77;;
11988;SDS011;6054;50.966;7.094;2023-09-19T11:01:44;4.25;;;1.40;;
11988;SDS011;6054;50.966;7.094;2023-09-19T11:04:23;5.03;;;2.00;;
11988;SDS011;6054;50.966;7.094;2023-09-19T11:07:00;3.47;;;1.65;;
11988;SDS011;6054;50.966;7.094;2023-09-19T11:21:41;3.92;;;1.70;;
11988;SDS011;6054;50.966;7.094;2023-09-19T11:24:29;4.03;;;1.80;;
11988;SDS011;6054;50.966;7.094;2023-09-19T11:27:14;4.18;;;1.60;;
11988;SDS011;6054;50.966;7.094;2023-09-19T11:29:43;4.22;;;1.75;;
11988;SDS011;6054;50.966;7.094;2023-09-19T11:32:10;4.38;;;1.70;;
11988;SDS011;6054;50.966;7.094;2023-09-19T11:34:41;5.13;;;1.80;;
11988;SDS011;6054;50.966;7.094;2023-09-19T11:40:34;4.80;;;1.70;;
11988;SDS011;6054;50.966;7.094;2023-09-19T11:46:01;7.38;;;2.20;;
11988;SDS011;6054;50.966;7.094;2023-09-19T11:48:39;5.55;;;2.30;;
11988;SDS011;6054;50.966;7.094;2023-09-19T11:51:16;3.47;;;1.88;;
11988;SDS011;6054;50.966;7.094;2023-09-19T11:53:52;3.05;;;1.50;;
11988;SDS011;6054;50.966;7.094;2023-09-19T11:56:20;5.95;;;1.60;;
11988;SDS011;6054;50.966;7.094;2023-09-19T11:58:49;5.53;;;1.80;;
11988;SDS011;6054;50.966;7.094;2023-09-19T12:01:21;5.53;;;2.08;;
11988;SDS011;6054;50.966;7.094;2023-09-19T12:03:52;5.10;;;1.88;;
11988;SDS011;6054;50.966;7.094;2023-09-19T12:06:21;4.80;;;1.65;;
11988;SDS011;6054;50.966;7.094;2023-09-19T12:08:48;4.43;;;1.73;;
11988;SDS011;6054;50.966;7.094;2023-09-19T12:11:19;4.03;;;1.83;;
11988;SDS011;6054;50.966;7.094;2023-09-19T12:13:48;4.28;;;1.80;;
11988;SDS011;6054;50.966;7.094;2023-09-19T12:16:17;5.05;;;1.80;;
11988;SDS011;6054;50.966;7.094;2023-09-19T12:18:46;5.82;;;1.80;;
11988;SDS011;6054;50.966;7.094;2023-09-19T12:21:22;2.85;;;1.85;;
11988;SDS011;6054;50.966;7.094;2023-09-19T12:23:59;7.88;;;2.00;;
11988;SDS011;6054;50.966;7.094;2023-09-19T12:26:36;3.28;;;2.00;;
11988;SDS011;6054;50.966;7.094;2023-09-19T12:29:10;2.30;;;1.48;;
11988;SDS011;6054;50.966;7.094;2023-09-19T12:31:49;4.15;;;1.67;;
11988;SDS011;6054;50.966;7.094;2023-09-19T12:34:18;4.65;;;1.52;;
11988;SDS011;6054;50.966;7.094;2023-09-19T12:36:47;3.95;;;1.73;;
11988;SDS011;6054;50.966;7.094;2023-09-19T12:39:24;5.03;;;1.77;;
11988;SDS011;6054;50.966;7.094;2023-09-19T12:41:51;3.50;;;1.50;;
11988;SDS011;6054;50.966;7.094;2023-09-19T12:44:19;3.95;;;2.05;;
11988;SDS011;6054;50.966;7.094;2023-09-19T12:46:46;4.20;;;2.00;;
11988;SDS011;6054;50.966;7.094;2023-09-19T12:49:16;4.80;;;1.77;;
11988;SDS011;6054;50.966;7.094;2023-09-19T12:51:44;5.05;;;1.85;;
11988;SDS011;6054;50.966;7.094;2023-09-19T12:54:13;5.70;;;1.73;;
11988;SDS011;6054;50.966;7.094;2023-09-19T12:56:42;4.15;;;1.65;;
11988;SDS011;6054;50.966;7.094;2023-09-19T12:59:11;6.15;;;1.83;;
11988;SDS011;6054;50.966;7.094;2023-09-19T13:01:39;4.80;;;1.92;;
11988;SDS011;6054;50.966;7.094;2023-09-19T13:04:11;4.43;;;1.75;;
11988;SDS011;6054;50.966;7.094;2023-09-19T13:06:44;9.18;;;2.15;;
11988;SDS011;6054;50.966;7.094;2023-09-19T13:09:15;4.18;;;1.90;;
11988;SDS011;6054;50.966;7.094;2023-09-19T13:11:42;5.95;;;1.60;;
11988;SDS011;6054;50.966;7.094;2023-09-19T13:14:13;3.42;;;1.48;;
11988;SDS011;6054;50.966;7.094;2023-09-19T13:16:52;4.45;;;2.20;;
11988;SDS011;6054;50.966;7.094;2023-09-19T13:19:34;9.23;;;2.38;;
11988;SDS011;6054;50.966;7.094;2023-09-19T13:22:02;3.95;;;1.67;;
11988;SDS011;6054;50.966;7.094;2023-09-19T13:24:30;5.03;;;1.80;;
11988;SDS011;6054;50.966;7.094;2023-09-19T13:27:00;2.67;;;1.52;;
11988;SDS011;6054;50.966;7.094;2023-09-19T13:29:28;2.75;;;1.30;;
11988;SDS011;6054;50.966;7.094;2023-09-19T13:31:55;3.42;;;1.42;;
11988;SDS011;6054;50.966;7.094;2023-09-19T13:34:22;2.30;;;1.60;;
11988;SDS011;6054;50.966;7.094;2023-09-19T13:36:49;3.58;;;1.52;;
11988;SDS011;6054;50.966;7.094;2023-09-19T13:39:16;2.17;;;1.50;;
11988;SDS011;6054;50.966;7.094;2023-09-19T13:41:45;4.78;;;1.58;;
11988;SDS011;6054;50.966;7.094;2023-09-19T13:44:13;3.80;;;1.40;;
11988;SDS011;6054;50.966;7.094;2023-09-19T13:46:41;4.38;;;1.30;;
11988;SDS011;6054;50.966;7.094;2023-09-19T13:49:10;3.22;;;1.42;;
11988;SDS011;6054;50.966;7.094;2023-09-19T13:51:37;2.42;;;1.42;;
11988;SDS011;6054;50.966;7.094;2023-09-19T13:54:08;3.08;;;1.30;;
11988;SDS011;6054;50.966;7.094;2023-09-19T13:56:36;3.90;;;1.58;;
11988;SDS011;6054;50.966;7.094;2023-09-19T13:59:05;3.55;;;1.23;;
11988;SDS011;6054;50.966;7.094;2023-09-19T14:01:31;3.00;;;1.20;;
11988;SDS011;6054;50.966;7.094;2023-09-19T14:03:58;2.50;;;1.58;;
11988;SDS011;6054;50.966;7.094;2023-09-19T14:06:25;5.85;;;1.50;;
11988;SDS011;6054;50.966;7.094;2023-09-19T14:08:52;4.68;;;1.55;;
11988;SDS011;6054;50.966;7.094;2023-09-19T14:11:18;2.90;;;1.30;;
11988;SDS011;6054;50.966;7.094;2023-09-19T14:13:45;1.67;;;0.88;;
11988;SDS011;6054;50.966;7.094;2023-09-19T14:16:15;3.97;;;1.20;;
11988;SDS011;6054;50.966;7.094;2023-09-19T14:18:44;5.03;;;1.90;;
11988;SDS011;6054;50.966;7.094;2023-09-19T14:21:11;5.35;;;1.30;;
11988;SDS011;6054;50.966;7.094;2023-09-19T14:23:37;1.83;;;1.20;;
11988;SDS011;6054;50.966;7.094;2023-09-19T14:26:05;2.40;;;0.93;;
11988;SDS011;6054;50.966;7.094;2023-09-19T14:28:32;2.78;;;1.30;;
11988;SDS011;6054;50.966;7.094;2023-09-19T14:31:03;2.40;;;1.15;;
11988;SDS011;6054;50.966;7.094;2023-09-19T14:33:32;1.85;;;1.00;;
11988;SDS011;6054;50.966;7.094;2023-09-19T14:36:02;1.52;;;1.00;;
11988;SDS011;6054;50.966;7.094;2023-09-19T14:38:30;2.45;;;1.58;;
11988;SDS011;6054;50.966;7.094;2023-09-19T14:40:59;4.07;;;1.50;;
11988;SDS011;6054;50.966;7.094;2023-09-19T14:43:26;2.90;;;1.40;;
11988;SDS011;6054;50.966;7.094;2023-09-19T14:45:54;1.58;;;1.08;;
11988;SDS011;6054;50.966;7.094;2023-09-19T14:48:22;2.13;;;1.05;;
11988;SDS011;6054;50.966;7.094;2023-09-19T14:50:51;1.60;;;1.02;;
11988;SDS011;6054;50.966;7.094;2023-09-19T14:53:20;2.95;;;1.10;;
11988;SDS011;6054;50.966;7.094;2023-09-19T14:55:47;2.63;;;1.02;;
11988;SDS011;6054;50.966;7.094;2023-09-19T14:58:17;2.00;;;1.00;;
11988;SDS011;6054;50.966;7.094;2023-09-19T15:00:43;2.75;;;1.10;;
11988;SDS011;6054;50.966;7.094;2023-09-19T15:03:11;2.92;;;0.93;;
11988;SDS011;6054;50.966;7.094;2023-09-19T15:05:38;1.27;;;0.93;;
11988;SDS011;6054;50.966;7.094;2023-09-19T15:08:06;2.17;;;1.05;;
11988;SDS011;6054;50.966;7.094;2023-09-19T15:10:33;1.60;;;0.88;;
11988;SDS011;6054;50.966;7.094;2023-09-19T15:13:00;3.63;;;0.98;;
11988;SDS011;6054;50.966;7.094;2023-09-19T15:15:26;3.80;;;1.02;;
11988;SDS011;6054;50.966;7.094;2023-09-19T15:17:53;1.58;;;1.00;;
11988;SDS011;6054;50.966;7.094;2023-09-19T15:20:20;3.72;;;1.10;;
11988;SDS011;6054;50.966;7.094;2023-09-19T15:22:47;2.00;;;0.98;;
11988;SDS011;6054;50.966;7.094;2023-09-19T15:25:16;1.30;;;1.10;;
11988;SDS011;6054;50.966;7.094;2023-09-19T15:27:42;1.40;;;1.30;;
11988;SDS011;6054;50.966;7.094;2023-09-19T15:30:10;3.55;;;1.15;;
11988;SDS011;6054;50.966;7.094;2023-09-19T15:32:40;1.10;;;0.90;;
11988;SDS011;6054;50.966;7.094;2023-09-19T15:35:07;1.25;;;0.90;;